sensor_id;sensor_type;location;lat;lon;timestamp;temperature;humidity
20672;DHT22;10495;50.922;4.760;2023-06-05T00:01:38;17.00;62.30
20672;DHT22;10495;50.922;4.760;2023-06-05T00:04:04;17.00;61.80
20672;DHT22;10495;50.922;4.760;2023-06-05T00:06:30;17.10;61.60
20672;DHT22;10495;50.922;4.760;2023-06-05T00:08:56;17.10;61.60
20672;DHT22;10495;50.922;4.760;2023-06-05T00:11:22;17.00;62.00
20672;DHT22;10495;50.922;4.760;2023-06-05T00:13:48;17.00;61.70
20672;DHT22;10495;50.922;4.760;2023-06-05T00:16:15;16.90;62.30
20672;DHT22;10495;50.922;4.760;2023-06-05T00:18:41;16.90;61.90
20672;DHT22;10495;50.922;4.760;2023-06-05T00:21:09;17.10;61.80
20672;DHT22;10495;50.922;4.760;2023-06-05T00:23:35;17.00;61.80
20672;DHT22;10495;50.922;4.760;2023-06-05T00:26:01;17.00;62.10
20672;DHT22;10495;50.922;4.760;2023-06-05T00:28:26;16.80;62.90
20672;DHT22;10495;50.922;4.760;2023-06-05T00:30:52;16.70;62.30
20672;DHT22;10495;50.922;4.760;2023-06-05T00:33:18;16.70;62.30
20672;DHT22;10495;50.922;4.760;2023-06-05T00:35:43;16.70;62.40
20672;DHT22;10495;50.922;4.760;2023-06-05T00:38:09;16.60;62.60
20672;DHT22;10495;50.922;4.760;2023-06-05T00:40:34;16.60;62.40
20672;DHT22;10495;50.922;4.760;2023-06-05T00:43:00;16.60;62.90
20672;DHT22;10495;50.922;4.760;2023-06-05T00:45:26;16.50;63.20
20672;DHT22;10495;50.922;4.760;2023-06-05T00:47:51;16.40;63.60
20672;DHT22;10495;50.922;4.760;2023-06-05T00:50:17;16.40;63.30
20672;DHT22;10495;50.922;4.760;2023-06-05T00:52:47;16.30;63.70
20672;DHT22;10495;50.922;4.760;2023-06-05T00:55:13;16.20;64.00
20672;DHT22;10495;50.922;4.760;2023-06-05T00:57:39;16.20;64.10
20672;DHT22;10495;50.922;4.760;2023-06-05T01:00:08;16.10;64.40
20672;DHT22;10495;50.922;4.760;2023-06-05T01:02:38;16.20;64.40
20672;DHT22;10495;50.922;4.760;2023-06-05T01:05:04;16.20;64.50
20672;DHT22;10495;50.922;4.760;2023-06-05T01:07:32;16.20;65.00
20672;DHT22;10495;50.922;4.760;2023-06-05T01:10:02;16.00;65.10
20672;DHT22;10495;50.922;4.760;2023-06-05T01:12:53;16.10;65.00
20672;DHT22;10495;50.922;4.760;2023-06-05T01:15:24;16.00;64.80
20672;DHT22;10495;50.922;4.760;2023-06-05T01:17:56;15.90;65.40
20672;DHT22;10495;50.922;4.760;2023-06-05T01:20:22;15.90;65.60
20672;DHT22;10495;50.922;4.760;2023-06-05T01:22:49;15.90;65.80
20672;DHT22;10495;50.922;4.760;2023-06-05T01:25:17;15.90;65.80
20672;DHT22;10495;50.922;4.760;2023-06-05T01:30:49;15.80;65.40
20672;DHT22;10495;50.922;4.760;2023-06-05T01:33:47;15.80;65.90
20672;DHT22;10495;50.922;4.760;2023-06-05T01:36:16;15.80;65.90
20672;DHT22;10495;50.922;4.760;2023-06-05T01:38:43;15.70;66.30
20672;DHT22;10495;50.922;4.760;2023-06-05T01:41:11;15.60;67.40
20672;DHT22;10495;50.922;4.760;2023-06-05T01:43:38;15.60;67.40
20672;DHT22;10495;50.922;4.760;2023-06-05T01:46:05;15.60;66.60
20672;DHT22;10495;50.922;4.760;2023-06-05T01:48:33;15.50;66.80
20672;DHT22;10495;50.922;4.760;2023-06-05T01:51:00;15.70;66.70
20672;DHT22;10495;50.922;4.760;2023-06-05T01:53:27;15.60;66.40
20672;DHT22;10495;50.922;4.760;2023-06-05T01:55:53;15.50;66.60
20672;DHT22;10495;50.922;4.760;2023-06-05T01:58:26;15.50;66.60
20672;DHT22;10495;50.922;4.760;2023-06-05T02:00:52;15.40;66.60
20672;DHT22;10495;50.922;4.760;2023-06-05T02:03:19;15.40;66.70
20672;DHT22;10495;50.922;4.760;2023-06-05T02:05:45;15.30;66.80
20672;DHT22;10495;50.922;4.760;2023-06-05T02:08:11;15.30;67.10
20672;DHT22;10495;50.922;4.760;2023-06-05T02:10:38;15.30;67.00
20672;DHT22;10495;50.922;4.760;2023-06-05T02:13:08;15.30;66.80
20672;DHT22;10495;50.922;4.760;2023-06-05T02:15:34;15.20;67.60
20672;DHT22;10495;50.922;4.760;2023-06-05T02:18:00;15.20;67.90
20672;DHT22;10495;50.922;4.760;2023-06-05T02:20:26;15.20;68.00
20672;DHT22;10495;50.922;4.760;2023-06-05T02:22:52;15.10;67.80
20672;DHT22;10495;50.922;4.760;2023-06-05T02:25:18;15.00;68.00
20672;DHT22;10495;50.922;4.760;2023-06-05T02:27:44;14.90;68.00
20672;DHT22;10495;50.922;4.760;2023-06-05T02:30:10;14.90;68.30
20672;DHT22;10495;50.922;4.760;2023-06-05T02:32:37;14.80;68.80
20672;DHT22;10495;50.922;4.760;2023-06-05T02:35:08;14.90;69.10
20672;DHT22;10495;50.922;4.760;2023-06-05T02:37:34;14.80;69.10
20672;DHT22;10495;50.922;4.760;2023-06-05T02:40:04;14.80;69.10
20672;DHT22;10495;50.922;4.760;2023-06-05T02:42:30;14.80;69.00
20672;DHT22;10495;50.922;4.760;2023-06-05T02:44:56;14.70;69.10
20672;DHT22;10495;50.922;4.760;2023-06-05T02:47:22;14.70;69.10
20672;DHT22;10495;50.922;4.760;2023-06-05T02:49:47;14.70;69.30
20672;DHT22;10495;50.922;4.760;2023-06-05T02:52:13;14.60;69.40
20672;DHT22;10495;50.922;4.760;2023-06-05T02:54:38;14.60;69.20
20672;DHT22;10495;50.922;4.760;2023-06-05T02:57:04;14.60;69.20
20672;DHT22;10495;50.922;4.760;2023-06-05T02:59:32;14.60;70.00
20672;DHT22;10495;50.922;4.760;2023-06-05T03:01:57;14.50;70.20
20672;DHT22;10495;50.922;4.760;2023-06-05T03:04:23;14.50;70.10
20672;DHT22;10495;50.922;4.760;2023-06-05T03:06:50;14.40;70.00
20672;DHT22;10495;50.922;4.760;2023-06-05T03:09:19;14.40;70.00
20672;DHT22;10495;50.922;4.760;2023-06-05T03:11:44;14.40;70.10
20672;DHT22;10495;50.922;4.760;2023-06-05T03:14:10;14.30;70.70
20672;DHT22;10495;50.922;4.760;2023-06-05T03:16:36;14.20;71.30
20672;DHT22;10495;50.922;4.760;2023-06-05T03:19:09;14.20;71.70
20672;DHT22;10495;50.922;4.760;2023-06-05T03:21:36;14.30;71.00
20672;DHT22;10495;50.922;4.760;2023-06-05T03:24:12;14.20;70.90
20672;DHT22;10495;50.922;4.760;2023-06-05T03:26:42;14.20;71.20
20672;DHT22;10495;50.922;4.760;2023-06-05T03:29:09;14.20;71.20
20672;DHT22;10495;50.922;4.760;2023-06-05T03:31:35;14.20;71.40
20672;DHT22;10495;50.922;4.760;2023-06-05T03:34:01;14.10;71.30
20672;DHT22;10495;50.922;4.760;2023-06-05T03:36:28;14.10;71.10
20672;DHT22;10495;50.922;4.760;2023-06-05T03:38:55;14.10;70.90
20672;DHT22;10495;50.922;4.760;2023-06-05T03:41:20;14.10;71.00
20672;DHT22;10495;50.922;4.760;2023-06-05T03:43:47;14.00;72.00
20672;DHT22;10495;50.922;4.760;2023-06-05T03:46:12;14.00;71.60
20672;DHT22;10495;50.922;4.760;2023-06-05T03:48:44;14.00;71.60
20672;DHT22;10495;50.922;4.760;2023-06-05T03:51:10;14.00;71.50
20672;DHT22;10495;50.922;4.760;2023-06-05T03:53:35;14.00;71.50
20672;DHT22;10495;50.922;4.760;2023-06-05T03:56:05;14.00;71.90
20672;DHT22;10495;50.922;4.760;2023-06-05T03:58:31;14.00;71.60
20672;DHT22;10495;50.922;4.760;2023-06-05T04:00:56;14.00;72.00
20672;DHT22;10495;50.922;4.760;2023-06-05T04:03:23;14.00;72.30
20672;DHT22;10495;50.922;4.760;2023-06-05T04:05:48;14.00;71.80
20672;DHT22;10495;50.922;4.760;2023-06-05T04:08:14;14.00;71.70
20672;DHT22;10495;50.922;4.760;2023-06-05T04:10:40;14.00;71.70
20672;DHT22;10495;50.922;4.760;2023-06-05T04:13:06;14.00;72.10
20672;DHT22;10495;50.922;4.760;2023-06-05T04:15:31;14.00;72.50
20672;DHT22;10495;50.922;4.760;2023-06-05T04:17:59;14.00;72.30
20672;DHT22;10495;50.922;4.760;2023-06-05T04:20:25;14.10;72.50
20672;DHT22;10495;50.922;4.760;2023-06-05T04:22:50;14.10;72.60
20672;DHT22;10495;50.922;4.760;2023-06-05T04:25:16;14.20;72.60
20672;DHT22;10495;50.922;4.760;2023-06-05T04:27:44;14.20;72.80
20672;DHT22;10495;50.922;4.760;2023-06-05T04:30:11;14.20;72.80
20672;DHT22;10495;50.922;4.760;2023-06-05T04:32:38;14.30;72.70
20672;DHT22;10495;50.922;4.760;2023-06-05T04:35:14;14.40;72.40
20672;DHT22;10495;50.922;4.760;2023-06-05T04:37:39;14.40;72.40
20672;DHT22;10495;50.922;4.760;2023-06-05T04:40:06;14.40;72.60
20672;DHT22;10495;50.922;4.760;2023-06-05T04:42:35;14.30;73.10
20672;DHT22;10495;50.922;4.760;2023-06-05T04:45:03;14.40;73.40
20672;DHT22;10495;50.922;4.760;2023-06-05T04:47:30;14.40;73.00
20672;DHT22;10495;50.922;4.760;2023-06-05T04:50:00;14.50;73.20
20672;DHT22;10495;50.922;4.760;2023-06-05T04:52:26;14.50;73.00
20672;DHT22;10495;50.922;4.760;2023-06-05T04:54:55;14.60;72.70
20672;DHT22;10495;50.922;4.760;2023-06-05T04:57:20;14.70;72.70
20672;DHT22;10495;50.922;4.760;2023-06-05T04:59:46;14.90;72.40
20672;DHT22;10495;50.922;4.760;2023-06-05T05:02:12;15.10;72.50
20672;DHT22;10495;50.922;4.760;2023-06-05T05:04:38;15.50;71.90
20672;DHT22;10495;50.922;4.760;2023-06-05T05:07:04;15.70;72.20
20672;DHT22;10495;50.922;4.760;2023-06-05T05:09:30;16.00;71.40
20672;DHT22;10495;50.922;4.760;2023-06-05T05:11:57;16.50;71.10
20672;DHT22;10495;50.922;4.760;2023-06-05T05:14:24;16.90;70.50
20672;DHT22;10495;50.922;4.760;2023-06-05T05:16:51;17.20;67.50
20672;DHT22;10495;50.922;4.760;2023-06-05T05:19:17;17.60;67.10
20672;DHT22;10495;50.922;4.760;2023-06-05T05:21:42;17.90;65.90
20672;DHT22;10495;50.922;4.760;2023-06-05T05:24:08;18.30;65.10
20672;DHT22;10495;50.922;4.760;2023-06-05T05:26:33;18.40;63.30
20672;DHT22;10495;50.922;4.760;2023-06-05T05:28:59;18.70;63.40
20672;DHT22;10495;50.922;4.760;2023-06-05T05:31:25;19.00;63.10
20672;DHT22;10495;50.922;4.760;2023-06-05T05:33:50;19.20;62.00
20672;DHT22;10495;50.922;4.760;2023-06-05T05:36:16;19.40;60.60
20672;DHT22;10495;50.922;4.760;2023-06-05T05:38:41;19.70;60.80
20672;DHT22;10495;50.922;4.760;2023-06-05T05:41:07;19.90;59.90
20672;DHT22;10495;50.922;4.760;2023-06-05T05:43:33;20.20;59.10
20672;DHT22;10495;50.922;4.760;2023-06-05T05:45:58;20.30;58.90
20672;DHT22;10495;50.922;4.760;2023-06-05T05:48:24;20.30;58.50
20672;DHT22;10495;50.922;4.760;2023-06-05T05:50:49;20.60;58.50
20672;DHT22;10495;50.922;4.760;2023-06-05T05:53:15;20.90;58.20
20672;DHT22;10495;50.922;4.760;2023-06-05T05:55:41;20.90;57.30
20672;DHT22;10495;50.922;4.760;2023-06-05T05:58:06;20.90;56.80
20672;DHT22;10495;50.922;4.760;2023-06-05T06:00:32;20.60;57.00
20672;DHT22;10495;50.922;4.760;2023-06-05T06:02:57;21.00;57.10
20672;DHT22;10495;50.922;4.760;2023-06-05T06:05:24;20.70;56.80
20672;DHT22;10495;50.922;4.760;2023-06-05T06:07:50;20.80;56.80
20672;DHT22;10495;50.922;4.760;2023-06-05T06:10:15;20.80;56.70
20672;DHT22;10495;50.922;4.760;2023-06-05T06:12:43;20.70;57.00
20672;DHT22;10495;50.922;4.760;2023-06-05T06:15:10;20.70;57.30
20672;DHT22;10495;50.922;4.760;2023-06-05T06:17:37;20.90;56.30
20672;DHT22;10495;50.922;4.760;2023-06-05T06:20:03;21.00;56.50
20672;DHT22;10495;50.922;4.760;2023-06-05T06:22:29;21.30;56.20
20672;DHT22;10495;50.922;4.760;2023-06-05T06:24:55;21.30;56.20
20672;DHT22;10495;50.922;4.760;2023-06-05T06:27:20;21.50;55.80
20672;DHT22;10495;50.922;4.760;2023-06-05T06:29:51;21.40;56.50
20672;DHT22;10495;50.922;4.760;2023-06-05T06:32:18;21.40;56.30
20672;DHT22;10495;50.922;4.760;2023-06-05T06:34:44;21.70;56.70
20672;DHT22;10495;50.922;4.760;2023-06-05T06:37:20;22.00;56.40
20672;DHT22;10495;50.922;4.760;2023-06-05T06:39:46;22.30;56.30
20672;DHT22;10495;50.922;4.760;2023-06-05T06:42:12;22.60;55.90
20672;DHT22;10495;50.922;4.760;2023-06-05T06:44:38;22.90;55.50
20672;DHT22;10495;50.922;4.760;2023-06-05T06:47:04;23.00;55.60
20672;DHT22;10495;50.922;4.760;2023-06-05T06:49:30;23.10;54.80
20672;DHT22;10495;50.922;4.760;2023-06-05T06:51:56;23.50;54.80
20672;DHT22;10495;50.922;4.760;2023-06-05T06:54:22;23.20;54.50
20672;DHT22;10495;50.922;4.760;2023-06-05T06:56:48;23.20;54.50
20672;DHT22;10495;50.922;4.760;2023-06-05T06:59:15;23.00;54.80
20672;DHT22;10495;50.922;4.760;2023-06-05T07:01:46;22.80;55.40
20672;DHT22;10495;50.922;4.760;2023-06-05T07:04:17;23.10;54.50
20672;DHT22;10495;50.922;4.760;2023-06-05T07:06:45;23.30;55.20
20672;DHT22;10495;50.922;4.760;2023-06-05T07:09:11;23.60;54.60
20672;DHT22;10495;50.922;4.760;2023-06-05T07:11:37;23.70;54.10
20672;DHT22;10495;50.922;4.760;2023-06-05T07:14:03;23.90;54.60
20672;DHT22;10495;50.922;4.760;2023-06-05T07:16:29;24.00;54.30
20672;DHT22;10495;50.922;4.760;2023-06-05T07:18:54;24.00;54.00
20672;DHT22;10495;50.922;4.760;2023-06-05T07:21:21;23.20;54.50
20672;DHT22;10495;50.922;4.760;2023-06-05T07:23:48;23.40;54.30
20672;DHT22;10495;50.922;4.760;2023-06-05T07:26:13;23.30;54.60
20672;DHT22;10495;50.922;4.760;2023-06-05T07:28:41;23.60;54.60
20672;DHT22;10495;50.922;4.760;2023-06-05T07:31:07;23.60;54.20
20672;DHT22;10495;50.922;4.760;2023-06-05T07:33:33;23.80;53.90
20672;DHT22;10495;50.922;4.760;2023-06-05T07:36:00;24.10;53.80
20672;DHT22;10495;50.922;4.760;2023-06-05T07:38:26;24.20;53.90
20672;DHT22;10495;50.922;4.760;2023-06-05T07:40:52;24.40;53.70
20672;DHT22;10495;50.922;4.760;2023-06-05T07:43:18;24.70;52.60
20672;DHT22;10495;50.922;4.760;2023-06-05T07:45:44;24.60;52.40
20672;DHT22;10495;50.922;4.760;2023-06-05T07:48:09;24.40;53.00
20672;DHT22;10495;50.922;4.760;2023-06-05T07:50:35;24.50;53.00
20672;DHT22;10495;50.922;4.760;2023-06-05T07:53:01;24.60;52.30
20672;DHT22;10495;50.922;4.760;2023-06-05T07:55:27;24.80;53.00
20672;DHT22;10495;50.922;4.760;2023-06-05T07:57:53;24.90;52.80
20672;DHT22;10495;50.922;4.760;2023-06-05T08:00:20;24.90;52.90
20672;DHT22;10495;50.922;4.760;2023-06-05T08:02:46;24.10;52.80
20672;DHT22;10495;50.922;4.760;2023-06-05T08:05:15;24.00;53.90
20672;DHT22;10495;50.922;4.760;2023-06-05T08:07:42;24.50;53.90
20672;DHT22;10495;50.922;4.760;2023-06-05T08:10:08;24.90;54.40
20672;DHT22;10495;50.922;4.760;2023-06-05T08:12:34;25.70;53.10
20672;DHT22;10495;50.922;4.760;2023-06-05T08:15:00;25.90;52.50
20672;DHT22;10495;50.922;4.760;2023-06-05T08:17:27;26.00;51.60
20672;DHT22;10495;50.922;4.760;2023-06-05T08:19:53;25.90;52.00
20672;DHT22;10495;50.922;4.760;2023-06-05T08:22:19;26.40;51.20
20672;DHT22;10495;50.922;4.760;2023-06-05T08:24:44;25.80;51.80
20672;DHT22;10495;50.922;4.760;2023-06-05T08:27:10;26.00;51.60
20672;DHT22;10495;50.922;4.760;2023-06-05T08:29:36;25.50;51.80
20672;DHT22;10495;50.922;4.760;2023-06-05T08:32:04;25.90;51.70
20672;DHT22;10495;50.922;4.760;2023-06-05T08:34:31;26.30;52.00
20672;DHT22;10495;50.922;4.760;2023-06-05T08:36:57;26.10;51.90
20672;DHT22;10495;50.922;4.760;2023-06-05T08:39:26;26.20;52.40
20672;DHT22;10495;50.922;4.760;2023-06-05T08:41:57;25.80;52.80
20672;DHT22;10495;50.922;4.760;2023-06-05T08:44:29;26.50;51.50
20672;DHT22;10495;50.922;4.760;2023-06-05T08:47:00;26.60;51.90
20672;DHT22;10495;50.922;4.760;2023-06-05T08:49:27;26.40;51.50
20672;DHT22;10495;50.922;4.760;2023-06-05T08:52:06;26.20;51.80
20672;DHT22;10495;50.922;4.760;2023-06-05T08:54:37;26.60;51.10
20672;DHT22;10495;50.922;4.760;2023-06-05T08:57:04;26.90;51.40
20672;DHT22;10495;50.922;4.760;2023-06-05T08:59:30;26.80;50.60
20672;DHT22;10495;50.922;4.760;2023-06-05T09:01:56;26.60;50.70
20672;DHT22;10495;50.922;4.760;2023-06-05T09:04:22;26.70;50.60
20672;DHT22;10495;50.922;4.760;2023-06-05T09:06:50;26.80;51.60
20672;DHT22;10495;50.922;4.760;2023-06-05T09:09:18;26.80;50.80
20672;DHT22;10495;50.922;4.760;2023-06-05T09:11:44;27.30;51.40
20672;DHT22;10495;50.922;4.760;2023-06-05T09:14:09;27.20;51.40
20672;DHT22;10495;50.922;4.760;2023-06-05T09:16:43;26.90;51.40
20672;DHT22;10495;50.922;4.760;2023-06-05T09:19:10;26.50;51.30
20672;DHT22;10495;50.922;4.760;2023-06-05T09:21:39;27.00;50.00
20672;DHT22;10495;50.922;4.760;2023-06-05T09:24:18;26.30;50.50
20672;DHT22;10495;50.922;4.760;2023-06-05T09:26:56;26.60;51.50
20672;DHT22;10495;50.922;4.760;2023-06-05T09:29:39;26.90;50.80
20672;DHT22;10495;50.922;4.760;2023-06-05T09:32:07;27.00;50.80
20672;DHT22;10495;50.922;4.760;2023-06-05T09:34:34;27.30;49.60
20672;DHT22;10495;50.922;4.760;2023-06-05T09:37:04;27.20;50.70
20672;DHT22;10495;50.922;4.760;2023-06-05T09:39:32;27.00;51.60
20672;DHT22;10495;50.922;4.760;2023-06-05T09:41:59;27.00;50.90
20672;DHT22;10495;50.922;4.760;2023-06-05T09:44:26;27.00;50.00
20672;DHT22;10495;50.922;4.760;2023-06-05T09:49:19;27.90;49.80
20672;DHT22;10495;50.922;4.760;2023-06-05T09:51:46;27.90;50.00
20672;DHT22;10495;50.922;4.760;2023-06-05T09:54:13;28.30;49.50
20672;DHT22;10495;50.922;4.760;2023-06-05T09:56:46;28.00;49.10
20672;DHT22;10495;50.922;4.760;2023-06-05T09:59:22;27.50;48.90
20672;DHT22;10495;50.922;4.760;2023-06-05T10:01:51;27.70;49.00
20672;DHT22;10495;50.922;4.760;2023-06-05T10:04:23;27.60;48.90
20672;DHT22;10495;50.922;4.760;2023-06-05T10:06:51;27.80;49.10
20672;DHT22;10495;50.922;4.760;2023-06-05T10:09:17;27.30;49.20
20672;DHT22;10495;50.922;4.760;2023-06-05T10:11:43;27.80;49.30
20672;DHT22;10495;50.922;4.760;2023-06-05T10:14:12;27.60;49.60
20672;DHT22;10495;50.922;4.760;2023-06-05T10:16:39;27.40;49.10
20672;DHT22;10495;50.922;4.760;2023-06-05T10:19:05;27.70;49.10
20672;DHT22;10495;50.922;4.760;2023-06-05T10:21:32;28.10;49.30
20672;DHT22;10495;50.922;4.760;2023-06-05T10:24:05;28.20;48.80
20672;DHT22;10495;50.922;4.760;2023-06-05T10:32:03;28.40;48.70
20672;DHT22;10495;50.922;4.760;2023-06-05T10:34:53;28.50;48.20
20672;DHT22;10495;50.922;4.760;2023-06-05T10:40:39;27.00;49.10
20672;DHT22;10495;50.922;4.760;2023-06-05T10:43:47;26.10;49.60
20672;DHT22;10495;50.922;4.760;2023-06-05T10:49:09;25.60;49.90
20672;DHT22;10495;50.922;4.760;2023-06-05T10:51:47;25.60;50.10
20672;DHT22;10495;50.922;4.760;2023-06-05T10:59:21;25.20;50.00
20672;DHT22;10495;50.922;4.760;2023-06-05T11:07:18;24.80;49.60
20672;DHT22;10495;50.922;4.760;2023-06-05T11:10:15;24.90;50.30
20672;DHT22;10495;50.922;4.760;2023-06-05T11:15:13;24.80;49.50
20672;DHT22;10495;50.922;4.760;2023-06-05T11:17:41;24.60;49.70
20672;DHT22;10495;50.922;4.760;2023-06-05T11:28:00;24.50;50.40
20672;DHT22;10495;50.922;4.760;2023-06-05T11:30:31;24.70;49.10
20672;DHT22;10495;50.922;4.760;2023-06-05T11:33:12;24.60;50.40
20672;DHT22;10495;50.922;4.760;2023-06-05T11:35:42;24.50;49.70
20672;DHT22;10495;50.922;4.760;2023-06-05T11:38:09;24.50;49.50
20672;DHT22;10495;50.922;4.760;2023-06-05T11:40:36;24.30;50.20
20672;DHT22;10495;50.922;4.760;2023-06-05T11:43:03;24.40;50.60
20672;DHT22;10495;50.922;4.760;2023-06-05T11:45:29;24.60;49.30
20672;DHT22;10495;50.922;4.760;2023-06-05T11:50:34;25.00;49.20
20672;DHT22;10495;50.922;4.760;2023-06-05T11:53:10;25.30;49.10
20672;DHT22;10495;50.922;4.760;2023-06-05T11:55:37;24.90;48.50
20672;DHT22;10495;50.922;4.760;2023-06-05T11:58:29;24.80;49.50
20672;DHT22;10495;50.922;4.760;2023-06-05T12:03:31;24.70;49.30
20672;DHT22;10495;50.922;4.760;2023-06-05T12:06:00;24.70;48.50
20672;DHT22;10495;50.922;4.760;2023-06-05T12:08:29;24.80;47.80
20672;DHT22;10495;50.922;4.760;2023-06-05T12:10:55;24.80;48.40
20672;DHT22;10495;50.922;4.760;2023-06-05T12:13:52;25.00;48.70
20672;DHT22;10495;50.922;4.760;2023-06-05T12:16:35;24.90;49.30
20672;DHT22;10495;50.922;4.760;2023-06-05T12:19:16;24.80;49.20
20672;DHT22;10495;50.922;4.760;2023-06-05T12:21:49;25.00;49.10
20672;DHT22;10495;50.922;4.760;2023-06-05T12:24:26;25.00;48.20
20672;DHT22;10495;50.922;4.760;2023-06-05T12:26:56;25.10;47.90
20672;DHT22;10495;50.922;4.760;2023-06-05T12:29:34;25.20;47.60
20672;DHT22;10495;50.922;4.760;2023-06-05T12:32:02;25.50;47.80
20672;DHT22;10495;50.922;4.760;2023-06-05T12:34:44;25.40;47.60
20672;DHT22;10495;50.922;4.760;2023-06-05T12:37:22;25.30;47.80
20672;DHT22;10495;50.922;4.760;2023-06-05T12:39:49;25.40;47.60
20672;DHT22;10495;50.922;4.760;2023-06-05T12:42:15;25.10;47.70
20672;DHT22;10495;50.922;4.760;2023-06-05T12:44:40;24.80;47.20
20672;DHT22;10495;50.922;4.760;2023-06-05T12:47:06;24.90;46.90
20672;DHT22;10495;50.922;4.760;2023-06-05T12:49:32;24.90;47.60
20672;DHT22;10495;50.922;4.760;2023-06-05T12:51:58;24.90;47.30
20672;DHT22;10495;50.922;4.760;2023-06-05T12:54:23;25.00;47.80
20672;DHT22;10495;50.922;4.760;2023-06-05T12:56:49;25.30;47.80
20672;DHT22;10495;50.922;4.760;2023-06-05T12:59:14;25.50;47.10
20672;DHT22;10495;50.922;4.760;2023-06-05T13:01:40;25.10;48.10
20672;DHT22;10495;50.922;4.760;2023-06-05T13:04:06;25.50;47.10
20672;DHT22;10495;50.922;4.760;2023-06-05T13:06:31;25.40;47.10
20672;DHT22;10495;50.922;4.760;2023-06-05T13:08:59;25.20;47.60
20672;DHT22;10495;50.922;4.760;2023-06-05T13:11:25;25.10;48.20
20672;DHT22;10495;50.922;4.760;2023-06-05T13:13:51;25.10;48.70
20672;DHT22;10495;50.922;4.760;2023-06-05T13:16:17;25.50;47.30
20672;DHT22;10495;50.922;4.760;2023-06-05T13:18:42;25.60;46.90
20672;DHT22;10495;50.922;4.760;2023-06-05T13:21:08;25.60;47.30
20672;DHT22;10495;50.922;4.760;2023-06-05T13:23:33;25.60;47.90
20672;DHT22;10495;50.922;4.760;2023-06-05T13:26:02;25.20;48.30
20672;DHT22;10495;50.922;4.760;2023-06-05T13:28:29;24.90;48.40
20672;DHT22;10495;50.922;4.760;2023-06-05T13:30:55;25.00;48.50
20672;DHT22;10495;50.922;4.760;2023-06-05T13:33:22;24.90;48.10
20672;DHT22;10495;50.922;4.760;2023-06-05T13:35:50;25.10;47.90
20672;DHT22;10495;50.922;4.760;2023-06-05T13:38:16;25.00;47.50
20672;DHT22;10495;50.922;4.760;2023-06-05T13:40:41;25.20;47.70
20672;DHT22;10495;50.922;4.760;2023-06-05T13:43:08;25.10;47.40
20672;DHT22;10495;50.922;4.760;2023-06-05T13:45:34;25.00;48.00
20672;DHT22;10495;50.922;4.760;2023-06-05T13:47:59;25.00;48.10
20672;DHT22;10495;50.922;4.760;2023-06-05T13:50:25;25.00;48.30
20672;DHT22;10495;50.922;4.760;2023-06-05T13:52:51;25.10;48.10
20672;DHT22;10495;50.922;4.760;2023-06-05T13:55:16;25.00;48.00
20672;DHT22;10495;50.922;4.760;2023-06-05T13:57:42;25.30;48.00
20672;DHT22;10495;50.922;4.760;2023-06-05T14:00:08;25.40;48.20
20672;DHT22;10495;50.922;4.760;2023-06-05T14:02:34;25.40;47.50
20672;DHT22;10495;50.922;4.760;2023-06-05T14:05:00;25.50;47.40
20672;DHT22;10495;50.922;4.760;2023-06-05T14:07:25;25.30;47.40
20672;DHT22;10495;50.922;4.760;2023-06-05T14:09:51;25.40;47.50
20672;DHT22;10495;50.922;4.760;2023-06-05T14:12:17;25.50;47.60
20672;DHT22;10495;50.922;4.760;2023-06-05T14:14:43;25.40;47.70
20672;DHT22;10495;50.922;4.760;2023-06-05T14:17:08;25.40;47.40
20672;DHT22;10495;50.922;4.760;2023-06-05T14:19:34;25.10;47.60
20672;DHT22;10495;50.922;4.760;2023-06-05T14:22:00;25.20;47.70
20672;DHT22;10495;50.922;4.760;2023-06-05T14:24:25;25.20;47.80
20672;DHT22;10495;50.922;4.760;2023-06-05T14:26:53;25.10;48.10
20672;DHT22;10495;50.922;4.760;2023-06-05T14:29:19;25.20;48.40
20672;DHT22;10495;50.922;4.760;2023-06-05T14:31:45;25.10;48.20
20672;DHT22;10495;50.922;4.760;2023-06-05T14:34:11;25.20;47.50
20672;DHT22;10495;50.922;4.760;2023-06-05T14:36:36;25.30;47.40
20672;DHT22;10495;50.922;4.760;2023-06-05T14:39:02;25.50;47.50
20672;DHT22;10495;50.922;4.760;2023-06-05T14:41:29;25.60;47.50
20672;DHT22;10495;50.922;4.760;2023-06-05T14:43:56;25.30;47.40
20672;DHT22;10495;50.922;4.760;2023-06-05T14:46:21;25.30;48.30
20672;DHT22;10495;50.922;4.760;2023-06-05T14:48:47;25.40;47.90
20672;DHT22;10495;50.922;4.760;2023-06-05T14:51:12;25.40;48.00
20672;DHT22;10495;50.922;4.760;2023-06-05T14:53:38;25.40;47.60
20672;DHT22;10495;50.922;4.760;2023-06-05T14:56:03;25.50;48.20
20672;DHT22;10495;50.922;4.760;2023-06-05T14:58:29;25.50;47.90
20672;DHT22;10495;50.922;4.760;2023-06-05T15:00:55;25.60;47.30
20672;DHT22;10495;50.922;4.760;2023-06-05T15:03:21;25.40;47.70
20672;DHT22;10495;50.922;4.760;2023-06-05T15:05:46;25.60;47.30
20672;DHT22;10495;50.922;4.760;2023-06-05T15:08:12;25.80;47.10
20672;DHT22;10495;50.922;4.760;2023-06-05T15:10:38;25.80;47.40
20672;DHT22;10495;50.922;4.760;2023-06-05T15:13:03;25.50;47.80
20672;DHT22;10495;50.922;4.760;2023-06-05T15:15:29;25.50;48.10
20672;DHT22;10495;50.922;4.760;2023-06-05T15:17:55;25.70;47.90
20672;DHT22;10495;50.922;4.760;2023-06-05T15:20:22;25.80;47.80
20672;DHT22;10495;50.922;4.760;2023-06-05T15:22:48;25.70;47.60
20672;DHT22;10495;50.922;4.760;2023-06-05T15:25:14;25.50;47.60
20672;DHT22;10495;50.922;4.760;2023-06-05T15:27:39;25.60;47.70
20672;DHT22;10495;50.922;4.760;2023-06-05T15:30:06;25.60;47.20
20672;DHT22;10495;50.922;4.760;2023-06-05T15:32:32;25.50;48.00
20672;DHT22;10495;50.922;4.760;2023-06-05T15:34:58;25.50;48.10
20672;DHT22;10495;50.922;4.760;2023-06-05T15:37:24;25.60;47.90
20672;DHT22;10495;50.922;4.760;2023-06-05T15:39:50;25.70;47.60
20672;DHT22;10495;50.922;4.760;2023-06-05T15:42:35;25.40;47.60
20672;DHT22;10495;50.922;4.760;2023-06-05T15:45:10;25.40;48.10
20672;DHT22;10495;50.922;4.760;2023-06-05T15:47:38;25.30;47.90
20672;DHT22;10495;50.922;4.760;2023-06-05T15:50:05;25.30;48.30
20672;DHT22;10495;50.922;4.760;2023-06-05T15:52:31;25.10;48.50
20672;DHT22;10495;50.922;4.760;2023-06-05T15:54:57;25.20;48.90
20672;DHT22;10495;50.922;4.760;2023-06-05T15:57:23;25.40;48.60
20672;DHT22;10495;50.922;4.760;2023-06-05T15:59:49;25.40;48.70
20672;DHT22;10495;50.922;4.760;2023-06-05T16:02:15;25.70;49.00
20672;DHT22;10495;50.922;4.760;2023-06-05T16:04:41;25.80;48.70
20672;DHT22;10495;50.922;4.760;2023-06-05T16:07:07;26.00;48.00
20672;DHT22;10495;50.922;4.760;2023-06-05T16:09:32;25.80;47.50
20672;DHT22;10495;50.922;4.760;2023-06-05T16:11:58;25.50;47.90
20672;DHT22;10495;50.922;4.760;2023-06-05T16:14:25;25.40;48.20
20672;DHT22;10495;50.922;4.760;2023-06-05T16:16:52;25.20;48.30